createdAt,value
2018-06-03T00:00:57.028Z,7.70
2018-06-03T00:03:25.354Z,7.90
2018-06-03T00:05:54.438Z,6.93
2018-06-03T00:08:22.736Z,8.00
2018-06-03T00:10:51.907Z,7.27
2018-06-03T00:13:20.413Z,7.70
2018-06-03T00:15:49.496Z,8.20
2018-06-03T00:18:18.539Z,8.30
2018-06-03T00:24:35.688Z,9.40
2018-06-03T00:27:06.106Z,9.38
2018-06-03T00:29:36.319Z,9.43
2018-06-03T00:32:06.450Z,9.30
2018-06-03T00:34:36.750Z,12.18
2018-06-03T00:37:06.788Z,11.67
2018-06-03T00:39:37.059Z,12.00
2018-06-03T00:42:07.303Z,13.67
2018-06-03T00:44:37.364Z,13.23
2018-06-03T00:47:07.561Z,12.43
2018-06-03T00:49:37.410Z,14.43
2018-06-03T00:52:07.358Z,16.37
2018-06-03T00:54:37.322Z,14.75
2018-06-03T00:57:12.619Z,14.63
2018-06-03T00:59:42.468Z,14.63
2018-06-03T01:02:12.683Z,15.80
2018-06-03T01:04:42.779Z,16.25
2018-06-03T01:07:13.001Z,16.27
2018-06-03T01:09:43.304Z,16.27
2018-06-03T01:12:13.563Z,17.43
2018-06-03T01:14:43.633Z,17.82
2018-06-03T01:17:13.563Z,17.50
2018-06-03T01:19:43.683Z,17.17
2018-06-03T01:22:13.854Z,16.60
2018-06-03T01:24:44.408Z,17.07
2018-06-03T01:27:14.659Z,18.90
2018-06-03T01:29:44.765Z,20.17
2018-06-03T01:32:14.685Z,18.63
2018-06-03T01:34:45.129Z,17.30
2018-06-03T01:37:15.227Z,17.48
2018-06-03T01:39:45.733Z,18.15
2018-06-03T01:42:15.997Z,18.37
2018-06-03T01:44:45.928Z,20.43
2018-06-03T01:47:16.083Z,17.92
2018-06-03T01:49:46.040Z,17.50
2018-06-03T01:52:16.198Z,20.27
2018-06-03T01:54:46.284Z,20.13
2018-06-03T01:57:16.314Z,18.53
2018-06-03T01:59:46.190Z,21.10
2018-06-03T02:02:16.374Z,19.73
2018-06-03T02:04:47.230Z,20.92
2018-06-03T02:07:17.786Z,18.00
2018-06-03T02:09:48.474Z,19.23
2018-06-03T02:12:19.103Z,20.15
2018-06-03T02:14:49.678Z,20.95
2018-06-03T02:20:16.974Z,20.23
2018-06-03T02:22:47.250Z,21.93
2018-06-03T02:25:17.368Z,20.70
2018-06-03T02:27:47.350Z,21.37
2018-06-03T02:30:17.224Z,18.27
2018-06-03T02:32:47.000Z,19.60
2018-06-03T02:35:17.095Z,20.57
2018-06-03T02:37:47.501Z,23.77
2018-06-03T02:40:17.766Z,19.73
2018-06-03T02:42:47.807Z,19.10
2018-06-03T02:45:17.593Z,23.13
2018-06-03T02:47:47.714Z,20.87
2018-06-03T02:50:17.970Z,21.30
2018-06-03T02:52:47.870Z,25.08
2018-06-03T02:55:17.923Z,32.60
2018-06-03T02:57:47.878Z,28.93
2018-06-03T03:00:18.098Z,33.30
2018-06-03T03:02:48.405Z,34.50
2018-06-03T03:05:18.590Z,33.93
2018-06-03T03:07:48.699Z,33.30
2018-06-03T03:10:21.831Z,31.33
2018-06-03T03:12:51.988Z,27.40
2018-06-03T03:15:22.191Z,24.53
2018-06-03T03:17:52.519Z,28.80
2018-06-03T03:20:22.243Z,33.27
2018-06-03T03:22:52.088Z,31.95
2018-06-03T03:25:22.144Z,35.13
2018-06-03T03:27:52.259Z,28.43
2018-06-03T03:30:22.378Z,28.60
2018-06-03T03:32:52.574Z,31.73
2018-06-03T03:35:22.753Z,28.47
2018-06-03T03:37:52.787Z,25.70
2018-06-03T03:40:22.723Z,27.00
2018-06-03T03:42:52.774Z,27.27
2018-06-03T03:45:22.628Z,29.97
2018-06-03T03:47:52.778Z,29.37
2018-06-03T03:50:23.115Z,28.53
2018-06-03T03:52:52.963Z,26.03
2018-06-03T03:55:23.223Z,32.13
2018-06-03T03:57:53.703Z,30.02
2018-06-03T04:00:24.867Z,31.55
2018-06-03T04:02:55.175Z,26.65
2018-06-03T04:05:25.754Z,25.55
2018-06-03T04:07:56.739Z,28.27
2018-06-03T04:10:27.564Z,24.63
2018-06-03T04:12:58.640Z,26.00
2018-06-03T04:15:29.292Z,26.02
2018-06-03T04:17:59.606Z,31.27
2018-06-03T04:20:30.269Z,28.45
2018-06-03T04:23:01.378Z,26.33
2018-06-03T04:25:31.938Z,28.20
2018-06-03T04:28:02.733Z,30.02
2018-06-03T04:30:33.488Z,27.32
2018-06-03T04:33:04.219Z,26.82
2018-06-03T04:35:34.299Z,29.00
2018-06-03T04:38:04.609Z,28.43
2018-06-03T04:40:34.718Z,30.57
2018-06-03T04:43:04.635Z,27.33
2018-06-03T04:45:34.461Z,31.27
2018-06-03T04:48:04.449Z,32.78
2018-06-03T04:50:34.588Z,30.33
2018-06-03T04:53:04.751Z,28.03
2018-06-03T04:55:34.889Z,27.00
2018-06-03T04:58:05.176Z,34.97
2018-06-03T05:00:35.304Z,37.33
2018-06-03T05:03:05.541Z,33.10
2018-06-03T05:05:35.435Z,34.90
2018-06-03T05:08:05.298Z,36.50
2018-06-03T05:10:35.250Z,37.13
2018-06-03T05:13:05.438Z,30.03
2018-06-03T05:15:35.543Z,39.27
2018-06-03T05:18:05.723Z,28.47
2018-06-03T05:20:36.007Z,32.70
2018-06-03T05:23:06.114Z,38.03
2018-06-03T05:25:36.354Z,39.37
2018-06-03T05:28:06.505Z,36.98
2018-06-03T05:30:36.543Z,37.33
2018-06-03T05:33:07.060Z,41.60
2018-06-03T05:35:37.017Z,40.40
2018-06-03T05:38:07.249Z,42.40
2018-06-03T05:40:37.549Z,39.80
2018-06-03T05:43:07.415Z,41.57
2018-06-03T05:45:37.841Z,38.33
2018-06-03T05:48:07.700Z,39.87
2018-06-03T05:50:38.186Z,38.70
2018-06-03T05:53:08.425Z,36.70
2018-06-03T05:55:38.705Z,34.67
2018-06-03T05:58:08.944Z,38.27
2018-06-03T06:00:39.141Z,41.20
2018-06-03T06:03:09.716Z,35.43
2018-06-03T06:05:39.654Z,34.90
2018-06-03T06:08:09.668Z,37.30
2018-06-03T06:10:39.791Z,37.48
2018-06-03T06:13:09.995Z,32.13
2018-06-03T06:15:40.480Z,36.67
2018-06-03T06:18:10.445Z,36.43
2018-06-03T06:20:40.481Z,43.23
2018-06-03T06:23:10.822Z,36.50
2018-06-03T06:25:41.018Z,35.80
2018-06-03T06:28:11.157Z,33.00
2018-06-03T06:30:41.088Z,35.27
2018-06-03T06:33:10.786Z,40.30
2018-06-03T06:35:40.836Z,36.90
2018-06-03T06:38:10.979Z,41.43
2018-06-03T06:40:41.361Z,38.87
2018-06-03T06:43:11.006Z,36.07
2018-06-03T06:45:41.445Z,37.13
2018-06-03T06:48:11.922Z,37.37
2018-06-03T06:50:41.905Z,36.75
2018-06-03T06:53:12.116Z,41.57
2018-06-03T06:55:42.396Z,41.17
2018-06-03T06:58:12.521Z,42.53
2018-06-03T07:00:42.975Z,40.77
2018-06-03T07:03:12.949Z,33.17
2018-06-03T07:05:43.173Z,42.57
2018-06-03T07:08:13.146Z,36.53
2018-06-03T07:10:43.454Z,38.37
2018-06-03T07:13:13.750Z,40.73
2018-06-03T07:15:43.865Z,36.13
2018-06-03T07:18:14.149Z,37.90
2018-06-03T07:20:44.282Z,37.07
2018-06-03T07:23:14.598Z,37.78
2018-06-03T07:25:44.456Z,40.38
2018-06-03T07:28:14.858Z,39.37
2018-06-03T07:30:44.847Z,36.17
2018-06-03T07:33:14.838Z,37.23
2018-06-03T07:35:45.013Z,36.23
2018-06-03T07:38:14.939Z,35.27
2018-06-03T07:40:45.016Z,39.45
2018-06-03T07:43:15.180Z,36.33
2018-06-03T07:45:45.379Z,14.83
2018-06-03T07:48:15.534Z,19.50
2018-06-03T07:50:45.431Z,19.57
2018-06-03T07:53:15.097Z,27.10
2018-06-03T07:55:45.118Z,35.43
2018-06-03T07:58:15.401Z,28.67
2018-06-03T08:00:45.727Z,28.98
2018-06-03T08:03:16.035Z,38.43
2018-06-03T08:05:46.052Z,38.53
2018-06-03T08:08:16.316Z,42.23
2018-06-03T08:10:46.364Z,40.88
2018-06-03T08:13:16.556Z,35.58
2018-06-03T08:15:46.888Z,35.85
2018-06-03T08:18:17.030Z,33.73
2018-06-03T08:20:47.010Z,35.73
2018-06-03T08:23:17.176Z,28.30
2018-06-03T08:25:47.619Z,29.60
2018-06-03T08:28:18.000Z,32.27
2018-06-03T08:30:47.879Z,27.90
2018-06-03T08:33:18.113Z,26.60
2018-06-03T08:35:48.640Z,32.23
2018-06-03T08:38:19.447Z,27.67
2018-06-03T08:40:50.520Z,34.30
2018-06-03T08:43:20.992Z,34.40
2018-06-03T08:45:51.114Z,30.23
2018-06-03T08:48:21.757Z,29.77
2018-06-03T08:50:52.311Z,31.30
2018-06-03T08:53:22.500Z,32.20
2018-06-03T08:55:52.668Z,24.27
2018-06-03T08:58:22.795Z,25.63
2018-06-03T09:00:52.790Z,24.70
2018-06-03T09:03:23.282Z,24.70
2018-06-03T09:05:53.515Z,25.13
2018-06-03T09:08:23.571Z,24.63
2018-06-03T09:10:53.398Z,24.10
2018-06-03T09:13:23.371Z,25.83
2018-06-03T09:15:53.572Z,24.00
2018-06-03T09:18:23.637Z,23.63
2018-06-03T09:20:53.860Z,26.03
2018-06-03T09:23:24.081Z,23.60
2018-06-03T09:25:54.253Z,25.50
2018-06-03T09:28:24.299Z,24.00
2018-06-03T09:30:59.538Z,29.33
2018-06-03T09:33:29.792Z,23.07
2018-06-03T09:35:59.813Z,23.17
2018-06-03T09:38:29.686Z,23.80
2018-06-03T09:40:59.870Z,26.43
2018-06-03T09:43:30.301Z,26.63
2018-06-03T09:46:00.341Z,17.87
2018-06-03T09:48:30.823Z,21.40
2018-06-03T09:51:00.915Z,20.05
2018-06-03T09:53:31.160Z,22.50
2018-06-03T09:56:01.405Z,17.27
2018-06-03T09:58:31.683Z,19.77
2018-06-03T10:01:01.861Z,20.73
2018-06-03T10:03:31.984Z,23.70
2018-06-03T10:06:02.154Z,40.27
2018-06-03T10:08:32.291Z,31.42
2018-06-03T10:11:02.650Z,174.60
2018-06-03T10:13:32.741Z,75.97
2018-06-03T10:16:03.067Z,38.30
2018-06-03T10:18:33.156Z,27.03
2018-06-03T10:21:03.357Z,22.02
2018-06-03T10:23:33.701Z,22.40
2018-06-03T10:26:03.907Z,20.13
2018-06-03T10:28:34.437Z,23.10
2018-06-03T10:31:04.293Z,20.57
2018-06-03T10:33:34.494Z,20.32
2018-06-03T10:36:04.983Z,22.37
2018-06-03T10:38:35.644Z,20.43
2018-06-03T10:41:05.906Z,23.22
2018-06-03T10:43:36.005Z,21.37
2018-06-03T10:46:06.284Z,25.13
2018-06-03T10:48:36.507Z,24.63
2018-06-03T10:51:06.651Z,19.43
2018-06-03T10:53:36.710Z,25.57
2018-06-03T10:56:07.100Z,21.33
2018-06-03T10:58:37.335Z,19.53
2018-06-03T11:01:07.466Z,18.17
2018-06-03T11:03:37.510Z,21.60
2018-06-03T11:06:07.988Z,17.10
2018-06-03T11:08:38.165Z,19.80
2018-06-03T11:20:18.238Z,17.00
2018-06-03T11:22:48.449Z,19.57
2018-06-03T11:25:18.732Z,18.60
2018-06-03T11:27:48.857Z,16.82
2018-06-03T11:30:19.103Z,26.03
2018-06-03T11:32:49.342Z,20.00
2018-06-03T11:35:19.567Z,21.83
2018-06-03T11:37:49.656Z,23.87
2018-06-03T11:40:19.743Z,21.13
2018-06-03T11:42:49.888Z,21.37
2018-06-03T11:45:20.191Z,23.03
2018-06-03T11:47:50.592Z,20.40
2018-06-03T11:50:20.733Z,26.07
2018-06-03T11:52:50.910Z,27.37
2018-06-03T11:55:21.008Z,28.53
2018-06-03T11:58:42.882Z,26.57
2018-06-03T12:01:13.323Z,26.20
2018-06-03T12:03:43.378Z,26.20
2018-06-03T12:06:13.726Z,26.03
2018-06-03T12:08:44.047Z,25.10
2018-06-03T12:11:14.028Z,21.10
2018-06-03T12:13:44.136Z,23.87
2018-06-03T12:16:14.304Z,24.83
2018-06-03T12:18:44.471Z,24.60
2018-06-03T12:21:14.886Z,18.43
2018-06-03T12:23:44.913Z,17.70
2018-06-03T12:26:15.344Z,22.93
2018-06-03T12:28:45.545Z,22.23
2018-06-03T12:31:15.681Z,16.93
2018-06-03T12:33:45.778Z,20.13
2018-06-03T12:36:15.842Z,20.20
2018-06-03T12:38:46.138Z,18.90
2018-06-03T12:41:16.249Z,17.70
2018-06-03T12:43:46.741Z,18.10
2018-06-03T12:46:16.890Z,17.47
2018-06-03T12:48:47.486Z,16.53
2018-06-03T12:51:17.997Z,16.33
2018-06-03T12:53:48.191Z,18.15
2018-06-03T12:56:18.474Z,15.90
2018-06-03T12:58:48.659Z,16.60
2018-06-03T13:01:18.922Z,17.57
2018-06-03T13:03:48.962Z,15.27
2018-06-03T13:06:19.093Z,17.77
2018-06-03T13:08:49.347Z,15.15
2018-06-03T13:11:19.604Z,16.37
2018-06-03T13:13:49.766Z,15.90
2018-06-03T13:16:20.126Z,17.50
2018-06-03T13:18:50.303Z,15.90
2018-06-03T13:21:20.353Z,15.95
2018-06-03T13:23:50.662Z,14.68
2018-06-03T13:26:20.889Z,16.50
2018-06-03T13:28:51.404Z,13.60
2018-06-03T13:31:22.043Z,17.17
2018-06-03T13:33:51.944Z,17.05
2018-06-03T13:36:22.531Z,17.75
2018-06-03T13:38:52.298Z,15.38
2018-06-03T13:41:22.497Z,13.17
2018-06-03T13:43:52.568Z,13.05
2018-06-03T13:46:22.844Z,12.28
2018-06-03T13:48:53.463Z,16.63
2018-06-03T13:51:23.656Z,16.85
2018-06-03T13:53:53.917Z,13.23
2018-06-03T13:56:24.155Z,16.50
2018-06-03T13:58:54.295Z,14.85
2018-06-03T14:01:24.531Z,16.73
2018-06-03T14:03:54.818Z,12.73
2018-06-03T14:06:24.865Z,12.80
2018-06-03T14:08:54.721Z,11.77
2018-06-03T14:11:25.196Z,12.37
2018-06-03T14:13:55.397Z,12.30
2018-06-03T14:16:25.668Z,13.70
2018-06-03T14:18:55.737Z,11.77
2018-06-03T14:21:25.757Z,14.40
2018-06-03T14:23:56.171Z,12.87
2018-06-03T14:26:26.453Z,15.30
2018-06-03T14:28:57.422Z,11.70
2018-06-03T14:31:27.738Z,13.50
2018-06-03T14:33:57.612Z,14.40
2018-06-03T14:36:28.100Z,12.18
2018-06-03T14:38:58.751Z,12.40
2018-06-03T14:41:29.646Z,13.65
2018-06-03T14:44:00.286Z,14.35
2018-06-03T14:46:30.910Z,11.17
2018-06-03T14:49:01.912Z,11.45
2018-06-03T14:51:32.478Z,11.90
2018-06-03T14:54:03.688Z,12.73
2018-06-03T14:56:33.667Z,14.23
2018-06-03T14:59:04.770Z,13.32
2018-06-03T15:01:35.937Z,12.07
2018-06-03T15:04:06.029Z,12.83
2018-06-03T15:06:36.741Z,11.90
2018-06-03T15:09:09.107Z,11.15
2018-06-03T15:11:39.720Z,11.87
2018-06-03T15:14:09.980Z,12.20
2018-06-03T15:16:40.127Z,11.57
2018-06-03T15:19:10.291Z,11.10
2018-06-03T15:21:40.449Z,9.77
2018-06-03T15:24:10.621Z,10.98
2018-06-03T15:26:41.762Z,8.18
2018-06-03T15:29:12.913Z,9.23
2018-06-03T15:31:43.166Z,7.70
2018-06-03T15:34:14.941Z,9.13
2018-06-03T15:36:44.963Z,9.40
2018-06-03T15:39:15.345Z,9.93
2018-06-03T15:41:45.948Z,9.13
2018-06-03T15:44:16.354Z,9.23
2018-06-03T15:46:46.796Z,8.80
2018-06-03T15:49:17.441Z,9.63
2018-06-03T15:51:47.809Z,8.80
2018-06-03T15:54:18.390Z,8.90
2018-06-03T15:56:49.325Z,8.20
2018-06-03T15:59:19.363Z,7.47
2018-06-03T16:01:49.483Z,7.45
2018-06-03T16:04:20.490Z,6.83
2018-06-03T16:06:50.811Z,18.90
2018-06-03T16:09:21.915Z,13.60
2018-06-03T16:11:52.320Z,11.40
2018-06-03T16:14:23.400Z,7.08
2018-06-03T16:16:53.647Z,7.00
2018-06-03T16:19:24.897Z,6.20
2018-06-03T16:21:54.773Z,7.25
2018-06-03T16:24:25.286Z,7.50
2018-06-03T16:26:56.284Z,11.63
2018-06-03T16:29:27.505Z,9.28
2018-06-03T16:31:58.003Z,6.63
2018-06-03T16:34:29.577Z,7.90
2018-06-03T16:36:59.964Z,6.60
2018-06-03T16:39:30.112Z,6.33
2018-06-03T16:42:00.380Z,6.22
2018-06-03T16:44:30.909Z,5.60
2018-06-03T16:47:01.820Z,5.17
2018-06-03T16:49:32.631Z,5.70
2018-06-03T16:52:03.025Z,5.70
2018-06-03T16:54:33.520Z,5.72
2018-06-03T16:57:04.362Z,5.43
2018-06-03T16:59:35.129Z,6.30
2018-06-03T17:02:05.959Z,4.83
2018-06-03T17:04:36.944Z,5.43
2018-06-03T17:07:08.154Z,5.95
2018-06-03T17:09:38.357Z,5.70
2018-06-03T17:12:08.615Z,5.90
2018-06-03T17:14:38.897Z,5.73
2018-06-03T17:17:09.125Z,5.60
2018-06-03T17:19:40.147Z,6.60
2018-06-03T17:22:10.491Z,6.97
2018-06-03T17:24:41.509Z,5.60
2018-06-03T17:27:11.825Z,5.30
2018-06-03T17:29:42.106Z,6.77
2018-06-03T17:32:12.259Z,5.73
2018-06-03T17:34:42.674Z,5.60
2018-06-03T17:37:12.723Z,5.47
2018-06-03T17:39:42.733Z,5.97
2018-06-03T17:42:12.898Z,5.20
2018-06-03T17:44:43.350Z,5.43
2018-06-03T17:47:13.706Z,5.47
2018-06-03T17:49:44.133Z,4.70
2018-06-03T17:52:14.447Z,5.67
2018-06-03T17:54:44.910Z,4.93
2018-06-03T17:57:15.296Z,6.37
2018-06-03T17:59:47.473Z,5.80
2018-06-03T18:02:17.605Z,5.97
2018-06-03T18:04:47.966Z,5.40
2018-06-03T18:07:18.368Z,4.90
2018-06-03T18:09:49.176Z,5.20
2018-06-03T18:12:19.309Z,4.40
2018-06-03T18:14:49.773Z,5.20
2018-06-03T18:17:20.197Z,5.40
2018-06-03T18:19:50.795Z,5.50
2018-06-03T18:22:20.966Z,4.87
2018-06-03T18:24:51.047Z,4.77
2018-06-03T18:27:21.266Z,4.67
2018-06-03T18:29:51.483Z,4.70
2018-06-03T18:32:21.774Z,5.23
2018-06-03T18:34:52.098Z,4.47
2018-06-03T18:37:22.068Z,5.17
2018-06-03T18:39:52.256Z,5.97
2018-06-03T18:42:22.845Z,6.10
2018-06-03T18:44:53.150Z,6.37
2018-06-03T18:47:23.910Z,6.10
2018-06-03T18:49:54.135Z,6.03
2018-06-03T18:52:24.656Z,5.42
2018-06-03T18:54:55.223Z,5.67
2018-06-03T18:57:25.601Z,5.85
2018-06-03T18:59:55.744Z,5.23
2018-06-03T19:02:25.906Z,5.40
2018-06-03T19:04:56.169Z,5.50
2018-06-03T19:07:27.467Z,6.55
2018-06-03T19:09:57.586Z,5.57
2018-06-03T19:12:27.861Z,5.37
2018-06-03T19:14:57.903Z,5.20
2018-06-03T19:17:28.179Z,5.57
2018-06-03T19:19:58.256Z,5.90
2018-06-03T19:22:28.514Z,5.27
2018-06-03T19:24:58.906Z,4.47
2018-06-03T19:27:29.199Z,5.47
2018-06-03T19:29:59.525Z,5.28
2018-06-03T19:32:29.758Z,5.97
2018-06-03T19:35:00.093Z,5.92
2018-06-03T19:37:30.293Z,4.70
2018-06-03T19:40:00.841Z,5.35
2018-06-03T19:42:30.990Z,5.58
2018-06-03T19:45:01.454Z,5.10
2018-06-03T19:47:31.434Z,5.78
2018-06-03T19:50:01.795Z,5.40
2018-06-03T19:52:31.732Z,5.73
2018-06-03T19:55:01.938Z,5.43
2018-06-03T19:57:32.159Z,5.70
2018-06-03T20:00:02.321Z,5.30
2018-06-03T20:02:32.563Z,5.27
2018-06-03T20:05:02.730Z,5.25
2018-06-03T20:07:32.962Z,5.10
2018-06-03T20:10:03.205Z,4.70
2018-06-03T20:12:33.345Z,5.50
2018-06-03T20:15:03.365Z,4.85
2018-06-03T20:17:34.283Z,5.70
2018-06-03T20:20:05.761Z,5.13
2018-06-03T20:22:36.049Z,5.47
2018-06-03T20:25:06.354Z,5.30
2018-06-03T20:27:36.512Z,7.62
2018-06-03T20:30:06.618Z,6.47
2018-06-03T20:32:36.842Z,7.17
2018-06-03T20:35:06.960Z,7.43
2018-06-03T20:37:37.238Z,6.73
2018-06-03T20:40:07.703Z,5.70
2018-06-03T20:42:37.823Z,6.17
2018-06-03T20:45:08.072Z,5.83
2018-06-03T20:47:38.120Z,6.10
2018-06-03T20:50:08.250Z,6.00
2018-06-03T20:52:38.485Z,5.50
2018-06-03T20:55:08.640Z,6.28
2018-06-03T20:57:38.655Z,6.97
2018-06-03T21:00:08.957Z,6.50
2018-06-03T21:02:39.075Z,6.50
2018-06-03T21:05:09.513Z,6.93
2018-06-03T21:07:39.516Z,6.97
2018-06-03T21:10:10.735Z,6.70
2018-06-03T21:12:41.118Z,5.60
2018-06-03T21:15:11.474Z,6.55
2018-06-03T21:17:42.263Z,6.80
2018-06-03T21:20:12.973Z,6.00
2018-06-03T21:22:43.599Z,6.20
2018-06-03T21:25:14.466Z,5.85
2018-06-03T21:27:44.934Z,6.37
2018-06-03T21:30:15.289Z,6.20
2018-06-03T21:32:45.505Z,6.13
2018-06-03T21:35:16.233Z,6.40
2018-06-03T21:37:46.806Z,6.90
2018-06-03T21:40:17.051Z,7.55
2018-06-03T21:42:47.856Z,5.70
2018-06-03T21:45:18.245Z,7.20
2018-06-03T21:47:49.177Z,7.65
2018-06-03T21:50:19.668Z,6.97
2018-06-03T21:52:50.421Z,6.58
2018-06-03T21:55:20.693Z,7.10
2018-06-03T21:57:51.170Z,8.28
2018-06-03T22:00:21.806Z,8.00
2018-06-03T22:02:52.149Z,7.25
2018-06-03T22:05:22.749Z,7.12
2018-06-03T22:07:54.254Z,7.20
2018-06-03T22:10:24.227Z,7.83
2018-06-03T22:12:54.485Z,8.28
2018-06-03T22:15:25.549Z,7.30
2018-06-03T22:17:55.644Z,7.17
2018-06-03T22:20:26.005Z,8.10
2018-06-03T22:22:56.813Z,8.18
2018-06-03T22:25:27.001Z,8.03
2018-06-03T22:27:57.604Z,7.72
2018-06-03T22:30:28.338Z,7.40
2018-06-03T22:32:58.928Z,8.15
2018-06-03T22:35:29.080Z,7.05
2018-06-03T22:37:59.380Z,6.70
2018-06-03T22:40:30.391Z,7.45
2018-06-03T22:43:00.663Z,8.25
2018-06-03T22:45:31.706Z,8.23
2018-06-03T22:48:02.035Z,7.28
2018-06-03T22:50:32.530Z,6.90
2018-06-03T22:53:03.400Z,6.12
2018-06-03T22:55:33.453Z,7.05
2018-06-03T22:58:04.874Z,7.50
2018-06-03T23:00:35.397Z,6.90
2018-06-03T23:03:10.819Z,8.10
2018-06-03T23:05:40.950Z,7.42
2018-06-03T23:08:11.248Z,7.07
2018-06-03T23:10:41.290Z,7.60
2018-06-03T23:13:11.766Z,7.90
2018-06-03T23:15:41.518Z,8.23
2018-06-03T23:18:11.506Z,8.50
2018-06-03T23:20:41.374Z,8.53
2018-06-03T23:23:11.433Z,8.63
2018-06-03T23:25:41.771Z,7.90
2018-06-03T23:28:11.883Z,9.03
2018-06-03T23:30:42.059Z,8.47
2018-06-03T23:33:12.051Z,9.00
2018-06-03T23:35:42.137Z,8.37
2018-06-03T23:38:12.379Z,7.90
2018-06-03T23:40:42.293Z,7.77
2018-06-03T23:43:12.217Z,8.40
2018-06-03T23:45:42.202Z,9.50
2018-06-03T23:48:12.720Z,11.70
2018-06-03T23:50:42.636Z,9.67
2018-06-03T23:53:12.489Z,10.70
2018-06-03T23:55:42.068Z,10.73
2018-06-03T23:58:12.183Z,8.50
